Leighton, Alabama
Current Conditions -  °F | °C
As of 9:53 AM on Wednesday 26 Nov 2014 (Local Time) from KMSL Reporting Station
NA  
Wind Chill: 42°   Ceiling: NA
Heat Index: 42°   Visibility: 10mi
Dew Point: 29°   Wind: 3mph
Humidity: 60%   Direction: 200°SSW
Pressure: 30.18"   Gusts: NA
Location:  34.7°N, 87.53°W
Report Text: KMSL 261553Z AUTO 20003KT 10SM 06/M02 A3018 RMK AO2 SLP221 T00561017
Loading
Personal Weather Stations






























Interactive Weather Map New forecast layout! Learn more

10-Day Weather Forecast

Advertisements
Track Severe Weather on mobile